createdAt,value
2023-04-16T00:00:29.458Z,97338.00
2023-04-16T00:02:56.805Z,97335.00
2023-04-16T00:05:24.042Z,97343.00
2023-04-16T00:07:51.986Z,97341.00
2023-04-16T00:10:19.172Z,97343.00
2023-04-16T00:12:46.346Z,97351.00
2023-04-16T00:15:13.449Z,97349.00
2023-04-16T00:17:40.584Z,97343.00
2023-04-16T00:20:09.200Z,97343.00
2023-04-16T00:22:36.696Z,97344.00
2023-04-16T00:25:04.258Z,97350.00
2023-04-16T00:27:31.288Z,97354.00
2023-04-16T00:29:58.336Z,97356.00
2023-04-16T00:32:25.607Z,97351.00
2023-04-16T00:34:52.689Z,97354.00
2023-04-16T00:37:19.822Z,97351.00
2023-04-16T00:39:46.893Z,97352.00
2023-04-16T00:42:14.008Z,97338.00
2023-04-16T00:47:21.890Z,97342.00
2023-04-16T00:49:49.403Z,97347.00
2023-04-16T00:52:16.485Z,97336.00
2023-04-16T00:54:43.685Z,97344.00
2023-04-16T00:57:11.183Z,97349.00
2023-04-16T00:59:42.045Z,97345.00
2023-04-16T01:02:09.265Z,97347.00
2023-04-16T01:04:36.687Z,97349.00
2023-04-16T01:07:03.907Z,97350.00
2023-04-16T01:09:31.057Z,97346.00
2023-04-16T01:11:58.098Z,97345.00
2023-04-16T01:14:25.222Z,97344.00
2023-04-16T01:16:52.292Z,97341.00
2023-04-16T01:19:19.360Z,97347.00
2023-04-16T01:21:46.819Z,97349.00
2023-04-16T01:24:13.941Z,97345.00
2023-04-16T01:26:41.500Z,97344.00
2023-04-16T01:29:08.910Z,97349.00
2023-04-16T01:31:36.470Z,97351.00
2023-04-16T01:34:03.756Z,97352.00
2023-04-16T01:36:30.911Z,97356.00
2023-04-16T01:38:58.209Z,97364.00
2023-04-16T01:41:25.491Z,97365.00
2023-04-16T01:43:52.619Z,97360.00
2023-04-16T01:46:27.543Z,97369.00
2023-04-16T01:48:55.509Z,97373.00
2023-04-16T01:51:22.806Z,97372.00
2023-04-16T01:53:50.699Z,97372.00
2023-04-16T01:56:17.889Z,97368.00
2023-04-16T01:58:46.217Z,97373.00
2023-04-16T02:01:14.084Z,97374.00
2023-04-16T02:03:41.732Z,97381.00
2023-04-16T02:06:09.044Z,97377.00
2023-04-16T02:08:36.365Z,97371.00
2023-04-16T02:11:03.598Z,97359.00
2023-04-16T02:13:30.754Z,97372.00
2023-04-16T02:15:57.980Z,97371.00
2023-04-16T02:18:25.097Z,97375.00
2023-04-16T02:20:52.252Z,97368.00
2023-04-16T02:23:19.336Z,97380.00
2023-04-16T02:25:47.719Z,97372.00
2023-04-16T02:28:17.179Z,97378.00
2023-04-16T02:30:44.694Z,97382.00
2023-04-16T02:33:13.012Z,97382.00
2023-04-16T02:35:40.884Z,97385.00
2023-04-16T02:38:08.623Z,97393.00
2023-04-16T02:40:35.963Z,97391.00
2023-04-16T02:43:03.159Z,97383.00
2023-04-16T02:45:31.760Z,97388.00
2023-04-16T02:47:59.996Z,97390.00
2023-04-16T02:50:27.250Z,97387.00
2023-04-16T02:52:54.402Z,97396.00
2023-04-16T02:55:21.542Z,97393.00
2023-04-16T02:57:48.747Z,97411.00
2023-04-16T03:00:16.064Z,97403.00
2023-04-16T03:02:43.268Z,97401.00
2023-04-16T03:05:10.712Z,97408.00
2023-04-16T03:07:39.288Z,97408.00
2023-04-16T03:10:07.829Z,97403.00
2023-04-16T03:12:36.127Z,97405.00
2023-04-16T03:15:03.630Z,97405.00
2023-04-16T03:17:30.844Z,97404.00
2023-04-16T03:19:57.991Z,97407.00
2023-04-16T03:22:25.185Z,97416.00
2023-04-16T03:24:52.324Z,97414.00
2023-04-16T03:27:19.382Z,97416.00
2023-04-16T03:29:46.490Z,97426.00
2023-04-16T03:32:13.632Z,97419.00
2023-04-16T03:34:41.002Z,97424.00
2023-04-16T03:37:11.989Z,97428.00
2023-04-16T03:39:39.306Z,97435.00
2023-04-16T03:42:06.635Z,97439.00
2023-04-16T03:44:33.966Z,97437.00
2023-04-16T03:47:01.110Z,97441.00
2023-04-16T03:49:28.239Z,97446.00
2023-04-16T03:51:55.451Z,97435.00
2023-04-16T03:54:23.000Z,97443.00
2023-04-16T03:56:50.426Z,97441.00
2023-04-16T03:59:17.756Z,97447.00
2023-04-16T04:01:44.839Z,97450.00
2023-04-16T04:04:12.148Z,97454.00
2023-04-16T04:06:39.261Z,97456.00
2023-04-16T04:09:06.429Z,97452.00
2023-04-16T04:11:33.628Z,97462.00
2023-04-16T04:14:00.757Z,97464.00
2023-04-16T04:16:27.951Z,97455.00
2023-04-16T04:18:55.732Z,97463.00
2023-04-16T04:21:23.091Z,97464.00
2023-04-16T04:23:50.462Z,97472.00
2023-04-16T04:26:17.694Z,97473.00
2023-04-16T04:28:44.860Z,97477.00
2023-04-16T04:31:12.044Z,97475.00
2023-04-16T04:33:39.172Z,97472.00
2023-04-16T04:36:07.050Z,97477.00
2023-04-16T04:38:34.233Z,97484.00
2023-04-16T04:41:01.534Z,97482.00
2023-04-16T04:43:28.627Z,97490.00
2023-04-16T04:45:56.058Z,97482.00
2023-04-16T04:48:26.792Z,97488.00
2023-04-16T04:50:54.072Z,97501.00
2023-04-16T04:53:21.160Z,97488.00
2023-04-16T04:55:52.123Z,97502.00
2023-04-16T04:58:21.107Z,97486.00
2023-04-16T05:00:48.188Z,97495.00
2023-04-16T05:03:23.813Z,97501.00
2023-04-16T05:05:50.936Z,97500.00
2023-04-16T05:08:18.015Z,97504.00
2023-04-16T05:10:45.353Z,97505.00
2023-04-16T05:13:12.481Z,97512.00
2023-04-16T05:15:39.629Z,97520.00
2023-04-16T05:18:06.766Z,97524.00
2023-04-16T05:20:33.882Z,97527.00
2023-04-16T05:23:01.023Z,97531.00
2023-04-16T05:25:28.091Z,97535.00
2023-04-16T05:27:55.215Z,97533.00
2023-04-16T05:30:22.741Z,97534.00
2023-04-16T05:32:49.934Z,97547.00
2023-04-16T05:35:17.621Z,97556.00
2023-04-16T05:37:45.007Z,97542.00
2023-04-16T05:40:14.206Z,97539.00
2023-04-16T05:42:41.485Z,97545.00
2023-04-16T05:45:09.396Z,97551.00
2023-04-16T05:47:36.476Z,97545.00
2023-04-16T05:50:03.645Z,97547.00
2023-04-16T05:52:30.873Z,97553.00
2023-04-16T05:55:01.677Z,97547.00
2023-04-16T05:57:30.529Z,97557.00
2023-04-16T05:59:57.597Z,97552.00
2023-04-16T06:02:24.897Z,97554.00
2023-04-16T06:04:52.084Z,97550.00
2023-04-16T06:07:19.158Z,97550.00
2023-04-16T06:09:46.311Z,97552.00
2023-04-16T06:12:13.401Z,97552.00
2023-04-16T06:14:40.545Z,97546.00
2023-04-16T06:17:07.620Z,97550.00
2023-04-16T06:19:34.789Z,97557.00
2023-04-16T06:22:01.979Z,97566.00
2023-04-16T06:24:29.172Z,97563.00
2023-04-16T06:26:57.566Z,97552.00
2023-04-16T06:29:37.015Z,97561.00
2023-04-16T06:32:07.934Z,97549.00
2023-04-16T06:34:35.077Z,97554.00
2023-04-16T06:37:03.581Z,97548.00
2023-04-16T06:39:31.095Z,97556.00
2023-04-16T06:41:58.379Z,97563.00
2023-04-16T06:44:25.438Z,97561.00
2023-04-16T06:46:53.513Z,97566.00
2023-04-16T06:49:21.966Z,97573.00
2023-04-16T06:51:49.103Z,97566.00
2023-04-16T06:54:16.918Z,97566.00
2023-04-16T06:56:44.044Z,97576.00
2023-04-16T06:59:11.579Z,97583.00
2023-04-16T07:01:38.798Z,97591.00
2023-04-16T07:04:06.128Z,97584.00
2023-04-16T07:06:33.364Z,97591.00
2023-04-16T07:09:00.415Z,97601.00
2023-04-16T07:11:27.591Z,97603.00
2023-04-16T07:13:54.691Z,97595.00
2023-04-16T07:16:21.852Z,97602.00
2023-04-16T07:18:49.010Z,97609.00
2023-04-16T07:21:16.198Z,97598.00
2023-04-16T07:23:43.675Z,97611.00
2023-04-16T07:26:11.761Z,97609.00
2023-04-16T07:28:41.111Z,97610.00
2023-04-16T07:31:08.772Z,97623.00
2023-04-16T07:33:35.921Z,97621.00
2023-04-16T07:36:02.951Z,97620.00
2023-04-16T07:38:30.109Z,97613.00
2023-04-16T07:40:57.287Z,97623.00
2023-04-16T07:43:24.378Z,97621.00
2023-04-16T07:45:51.792Z,97618.00
2023-04-16T07:48:19.103Z,97629.00
2023-04-16T07:50:46.304Z,97624.00
2023-04-16T07:53:14.565Z,97632.00
2023-04-16T07:55:41.782Z,97615.00
2023-04-16T07:58:09.835Z,97625.00
2023-04-16T08:00:37.356Z,97623.00
2023-04-16T08:03:04.845Z,97625.00
2023-04-16T08:05:32.091Z,97631.00
2023-04-16T08:07:59.264Z,97634.00
2023-04-16T08:10:26.398Z,97632.00
2023-04-16T08:12:53.962Z,97625.00
2023-04-16T08:15:21.260Z,97631.00
2023-04-16T08:17:48.617Z,97625.00
2023-04-16T08:20:17.775Z,97643.00
2023-04-16T08:22:46.634Z,97634.00
2023-04-16T08:25:14.422Z,97631.00
2023-04-16T08:27:41.564Z,97647.00
2023-04-16T08:30:08.889Z,97639.00
2023-04-16T08:32:36.116Z,97641.00
2023-04-16T08:35:03.432Z,97645.00
2023-04-16T08:37:30.551Z,97645.00
2023-04-16T08:39:57.687Z,97643.00
2023-04-16T08:42:37.108Z,97649.00
2023-04-16T08:45:10.941Z,97649.00
2023-04-16T08:47:38.213Z,97651.00
2023-04-16T08:50:06.380Z,97655.00
2023-04-16T08:52:38.393Z,97661.00
2023-04-16T08:55:12.625Z,97661.00
2023-04-16T08:58:04.760Z,97670.00
2023-04-16T09:00:32.064Z,97662.00
2023-04-16T09:03:00.107Z,97668.00
2023-04-16T09:05:29.601Z,97668.00
2023-04-16T09:07:56.830Z,97666.00
2023-04-16T09:10:26.332Z,97672.00
2023-04-16T09:12:57.473Z,97672.00
2023-04-16T09:15:25.974Z,97676.00
2023-04-16T09:17:54.017Z,97674.00
2023-04-16T09:20:21.315Z,97686.00
2023-04-16T09:22:48.690Z,97676.00
2023-04-16T09:25:16.413Z,97678.00
2023-04-16T09:27:44.149Z,97684.00
2023-04-16T09:30:26.245Z,97690.00
2023-04-16T09:33:17.750Z,97688.00
2023-04-16T09:35:51.025Z,97688.00
2023-04-16T09:38:19.812Z,97695.00
2023-04-16T09:40:47.763Z,97695.00
2023-04-16T09:43:19.170Z,97691.00
2023-04-16T09:45:55.544Z,97698.00
2023-04-16T09:48:33.034Z,97698.00
2023-04-16T09:51:01.472Z,97691.00
2023-04-16T09:53:32.681Z,97693.00
2023-04-16T09:56:06.698Z,97677.00
2023-04-16T09:58:37.360Z,97690.00
2023-04-16T10:01:12.847Z,97693.00
2023-04-16T10:03:41.312Z,97683.00
2023-04-16T10:06:15.356Z,97678.00
2023-04-16T10:08:50.733Z,97690.00
2023-04-16T10:11:19.219Z,97691.00
2023-04-16T10:13:46.694Z,97702.00
2023-04-16T10:16:14.090Z,97701.00
2023-04-16T10:18:47.095Z,97695.00
2023-04-16T10:21:16.522Z,97697.00
2023-04-16T10:23:44.278Z,97696.00
2023-04-16T10:26:11.510Z,97708.00
2023-04-16T10:28:39.339Z,97702.00
2023-04-16T10:31:09.145Z,97698.00
2023-04-16T10:33:40.871Z,97698.00
2023-04-16T10:36:26.460Z,97702.00
2023-04-16T10:38:58.949Z,97699.00
2023-04-16T10:41:27.563Z,97706.00
2023-04-16T10:44:12.552Z,97701.00
2023-04-16T10:46:42.645Z,97705.00
2023-04-16T10:49:16.383Z,97710.00
2023-04-16T10:51:53.505Z,97707.00
2023-04-16T10:54:41.165Z,97697.00
2023-04-16T10:57:18.034Z,97707.00
2023-04-16T10:59:46.209Z,97707.00
2023-04-16T11:02:18.943Z,97702.00
2023-04-16T11:04:48.999Z,97708.00
2023-04-16T11:07:32.663Z,97709.00
2023-04-16T11:10:13.518Z,97706.00
2023-04-16T11:12:51.513Z,97708.00
2023-04-16T11:15:23.561Z,97708.00
2023-04-16T11:17:52.808Z,97705.00
2023-04-16T11:20:25.882Z,97702.00
2023-04-16T11:22:58.408Z,97712.00
2023-04-16T11:25:31.212Z,97714.00
2023-04-16T11:28:01.629Z,97709.00
2023-04-16T11:30:33.947Z,97705.00
2023-04-16T11:33:11.708Z,97705.00
2023-04-16T11:35:40.287Z,97713.00
2023-04-16T11:38:07.744Z,97705.00
2023-04-16T11:40:36.383Z,97717.00
2023-04-16T11:43:17.510Z,97714.00
2023-04-16T11:46:16.198Z,97711.00
2023-04-16T11:48:59.550Z,97721.00
2023-04-16T11:51:26.760Z,97715.00
2023-04-16T11:53:54.569Z,97716.00
2023-04-16T11:56:34.257Z,97723.00
2023-04-16T11:59:11.797Z,97723.00
2023-04-16T12:01:42.416Z,97724.00
2023-04-16T12:04:09.805Z,97727.00
2023-04-16T12:06:37.345Z,97727.00
2023-04-16T12:09:25.646Z,97724.00
2023-04-16T12:11:53.427Z,97717.00
2023-04-16T12:14:21.861Z,97720.00
2023-04-16T12:16:49.282Z,97715.00
2023-04-16T12:19:16.732Z,97715.00
2023-04-16T12:21:49.821Z,97711.00
2023-04-16T12:24:24.249Z,97717.00
2023-04-16T12:27:03.341Z,97713.00
2023-04-16T12:29:30.562Z,97710.00
2023-04-16T12:31:58.004Z,97709.00
2023-04-16T12:34:28.937Z,97713.00
2023-04-16T12:37:13.030Z,97701.00
2023-04-16T12:39:40.676Z,97705.00
2023-04-16T12:42:09.972Z,97706.00
2023-04-16T12:44:37.144Z,97703.00
2023-04-16T12:47:05.694Z,97699.00
2023-04-16T12:49:33.030Z,97698.00
2023-04-16T12:52:00.321Z,97704.00
2023-04-16T12:54:29.891Z,97708.00
2023-04-16T12:56:57.710Z,97701.00
2023-04-16T12:59:25.338Z,97697.00
2023-04-16T13:01:52.946Z,97710.00
2023-04-16T13:04:22.023Z,97699.00
2023-04-16T13:06:50.961Z,97699.00
2023-04-16T13:09:20.441Z,97703.00
2023-04-16T13:11:47.614Z,97701.00
2023-04-16T13:14:14.845Z,97694.00
2023-04-16T13:16:42.012Z,97694.00
2023-04-16T13:19:09.413Z,97709.00
2023-04-16T13:21:36.918Z,97698.00
2023-04-16T13:24:04.447Z,97696.00
2023-04-16T13:26:31.785Z,97695.00
2023-04-16T13:28:58.942Z,97690.00
2023-04-16T13:31:26.830Z,97688.00
2023-04-16T13:33:57.060Z,97693.00
2023-04-16T13:36:26.279Z,97692.00
2023-04-16T13:38:54.833Z,97686.00
2023-04-16T13:41:24.714Z,97683.00
2023-04-16T13:43:59.395Z,97682.00
2023-04-16T13:46:27.298Z,97681.00
2023-04-16T13:48:54.663Z,97686.00
2023-04-16T13:51:22.731Z,97683.00
2023-04-16T13:53:49.920Z,97685.00
2023-04-16T13:56:18.604Z,97687.00
2023-04-16T13:58:45.843Z,97690.00
2023-04-16T14:01:13.214Z,97688.00
2023-04-16T14:03:41.058Z,97680.00
2023-04-16T14:06:08.419Z,97680.00
2023-04-16T14:08:39.258Z,97686.00
2023-04-16T14:11:06.899Z,97688.00
2023-04-16T14:13:34.443Z,97679.00
2023-04-16T14:16:02.745Z,97678.00
2023-04-16T14:19:16.396Z,97679.00
2023-04-16T14:21:51.786Z,97683.00
2023-04-16T14:24:22.263Z,97688.00
2023-04-16T14:26:49.485Z,97688.00
2023-04-16T14:29:16.761Z,97680.00
2023-04-16T14:31:43.946Z,97673.00
2023-04-16T14:34:11.459Z,97684.00
2023-04-16T14:36:38.798Z,97678.00
2023-04-16T14:39:12.985Z,97680.00
2023-04-16T14:41:40.499Z,97683.00
2023-04-16T14:44:08.482Z,97685.00
2023-04-16T14:46:36.212Z,97684.00
2023-04-16T14:49:03.643Z,97682.00
2023-04-16T14:51:31.938Z,97685.00
2023-04-16T14:53:59.119Z,97687.00
2023-04-16T14:56:26.318Z,97690.00
2023-04-16T14:58:53.458Z,97683.00
2023-04-16T15:01:20.684Z,97689.00
2023-04-16T15:03:48.089Z,97698.00
2023-04-16T15:06:16.705Z,97694.00
2023-04-16T15:08:43.989Z,97694.00
2023-04-16T15:11:11.299Z,97695.00
2023-04-16T15:13:38.339Z,97688.00
2023-04-16T15:16:06.092Z,97692.00
2023-04-16T15:18:33.960Z,97696.00
2023-04-16T15:21:01.093Z,97694.00
2023-04-16T15:23:28.321Z,97693.00
2023-04-16T15:25:55.539Z,97691.00
2023-04-16T15:28:22.808Z,97686.00
2023-04-16T15:30:50.252Z,97690.00
2023-04-16T15:33:17.441Z,97698.00
2023-04-16T15:35:44.571Z,97690.00
2023-04-16T15:38:11.636Z,97691.00
2023-04-16T15:40:38.876Z,97699.00
2023-04-16T15:43:07.320Z,97694.00
2023-04-16T15:45:34.783Z,97704.00
2023-04-16T15:48:02.044Z,97704.00
2023-04-16T15:50:29.298Z,97704.00
2023-04-16T15:52:56.728Z,97715.00
2023-04-16T15:55:23.881Z,97715.00
2023-04-16T15:57:51.504Z,97719.00
2023-04-16T16:00:19.024Z,97715.00
2023-04-16T16:02:47.661Z,97717.00
2023-04-16T16:05:16.066Z,97721.00
2023-04-16T16:07:43.782Z,97722.00
2023-04-16T16:10:13.490Z,97724.00
2023-04-16T16:12:41.642Z,97722.00
2023-04-16T16:15:11.207Z,97724.00
2023-04-16T16:17:39.292Z,97726.00
2023-04-16T16:20:10.179Z,97720.00
2023-04-16T16:22:38.451Z,97735.00
2023-04-16T16:25:07.050Z,97740.00
2023-04-16T16:27:34.374Z,97735.00
2023-04-16T16:30:01.843Z,97752.00
2023-04-16T16:32:29.097Z,97770.00
2023-04-16T16:34:56.362Z,97773.00
2023-04-16T16:37:23.580Z,97781.00
2023-04-16T16:39:50.886Z,97777.00
2023-04-16T16:42:19.070Z,97776.00
2023-04-16T16:44:47.758Z,97784.00
2023-04-16T16:47:15.036Z,97779.00
2023-04-16T16:49:42.170Z,97775.00
2023-04-16T16:52:09.292Z,97775.00
2023-04-16T16:54:36.451Z,97778.00
2023-04-16T16:57:03.731Z,97781.00
2023-04-16T16:59:31.105Z,97779.00
2023-04-16T17:01:58.458Z,97785.00
2023-04-16T17:04:25.774Z,97786.00
2023-04-16T17:06:52.921Z,97788.00
2023-04-16T17:09:20.335Z,97789.00
2023-04-16T17:11:47.573Z,97793.00
2023-04-16T17:14:14.779Z,97797.00
2023-04-16T17:16:41.905Z,97802.00
2023-04-16T17:19:09.483Z,97806.00
2023-04-16T17:21:36.758Z,97803.00
2023-04-16T17:24:04.098Z,97804.00
2023-04-16T17:26:31.970Z,97816.00
2023-04-16T17:28:59.531Z,97813.00
2023-04-16T17:31:27.966Z,97812.00
2023-04-16T17:33:55.135Z,97821.00
2023-04-16T17:36:23.303Z,97814.00
2023-04-16T17:38:50.734Z,97814.00
2023-04-16T17:41:17.911Z,97809.00
2023-04-16T17:43:49.692Z,97815.00
2023-04-16T17:46:17.304Z,97819.00
2023-04-16T17:48:44.495Z,97820.00
2023-04-16T17:51:16.748Z,97808.00
2023-04-16T17:53:44.826Z,97803.00
2023-04-16T17:56:13.304Z,97811.00
2023-04-16T17:58:40.830Z,97810.00
2023-04-16T18:01:07.985Z,97811.00
2023-04-16T18:03:35.751Z,97820.00
2023-04-16T18:06:03.702Z,97816.00
2023-04-16T18:08:31.049Z,97823.00
2023-04-16T18:10:58.098Z,97821.00
2023-04-16T18:13:25.559Z,97823.00
2023-04-16T18:15:53.113Z,97823.00
2023-04-16T18:18:21.379Z,97825.00
2023-04-16T18:20:48.541Z,97831.00
2023-04-16T18:23:15.800Z,97835.00
2023-04-16T18:25:42.851Z,97827.00
2023-04-16T18:28:09.973Z,97836.00
2023-04-16T18:30:40.453Z,97837.00
2023-04-16T18:33:34.394Z,97847.00
2023-04-16T18:35:54.888Z,97843.00
2023-04-16T18:38:21.999Z,97847.00
2023-04-16T18:40:49.830Z,97856.00
2023-04-16T18:43:17.154Z,97855.00
2023-04-16T18:45:44.236Z,97855.00
2023-04-16T18:48:11.509Z,97855.00
2023-04-16T18:50:38.572Z,97860.00
2023-04-16T18:53:05.720Z,97866.00
2023-04-16T18:55:32.892Z,97872.00
2023-04-16T18:58:00.125Z,97874.00
2023-04-16T19:00:27.532Z,97870.00
2023-04-16T19:02:54.743Z,97879.00
2023-04-16T19:05:23.093Z,97876.00
2023-04-16T19:07:57.941Z,97879.00
2023-04-16T19:10:25.139Z,97884.00
2023-04-16T19:12:52.455Z,97879.00
2023-04-16T19:15:19.571Z,97884.00
2023-04-16T19:17:47.726Z,97894.00
2023-04-16T19:20:15.410Z,97894.00
2023-04-16T19:22:42.491Z,97889.00
2023-04-16T19:25:10.251Z,97894.00
2023-04-16T19:27:37.299Z,97893.00
2023-04-16T19:30:06.429Z,97902.00
2023-04-16T19:32:33.910Z,97890.00
2023-04-16T19:35:00.988Z,97892.00
2023-04-16T19:37:28.303Z,97901.00
2023-04-16T19:39:55.607Z,97890.00
2023-04-16T19:42:22.702Z,97891.00
2023-04-16T19:44:49.795Z,97888.00
2023-04-16T19:47:16.978Z,97882.00
2023-04-16T19:49:44.186Z,97881.00
2023-04-16T19:52:11.307Z,97891.00
2023-04-16T19:54:38.390Z,97892.00
2023-04-16T19:57:05.519Z,97891.00
2023-04-16T19:59:33.230Z,97895.00
2023-04-16T20:02:00.456Z,97902.00
2023-04-16T20:04:27.650Z,97902.00
2023-04-16T20:06:54.749Z,97909.00
2023-04-16T20:09:21.879Z,97902.00
2023-04-16T20:11:49.782Z,97907.00
2023-04-16T20:14:17.317Z,97909.00
2023-04-16T20:16:44.451Z,97910.00
2023-04-16T20:19:17.211Z,97908.00
2023-04-16T20:21:45.612Z,97914.00
2023-04-16T20:24:12.815Z,97916.00
2023-04-16T20:26:40.013Z,97909.00
2023-04-16T20:29:07.187Z,97909.00
2023-04-16T20:31:34.419Z,97911.00
2023-04-16T20:34:01.501Z,97906.00
2023-04-16T20:36:28.942Z,97900.00
2023-04-16T20:38:55.981Z,97896.00
2023-04-16T20:41:25.329Z,97893.00
2023-04-16T20:43:53.069Z,97898.00
2023-04-16T20:46:24.431Z,97890.00
2023-04-16T20:48:52.144Z,97897.00
2023-04-16T20:51:19.427Z,97880.00
2023-04-16T20:53:46.563Z,97891.00
2023-04-16T20:56:15.087Z,97888.00
2023-04-16T20:58:42.879Z,97889.00
2023-04-16T21:01:10.171Z,97884.00
2023-04-16T21:03:37.685Z,97886.00
2023-04-16T21:06:05.125Z,97885.00
2023-04-16T21:08:32.418Z,97885.00
2023-04-16T21:10:59.512Z,97879.00
2023-04-16T21:13:26.729Z,97895.00
2023-04-16T21:15:53.853Z,97891.00
2023-04-16T21:18:21.028Z,97892.00
2023-04-16T21:20:48.192Z,97895.00
2023-04-16T21:23:15.645Z,97891.00
2023-04-16T21:25:42.789Z,97900.00
2023-04-16T21:28:09.936Z,97900.00
2023-04-16T21:30:37.324Z,97895.00
2023-04-16T21:33:04.633Z,97893.00
2023-04-16T21:35:33.259Z,97898.00
2023-04-16T21:38:00.379Z,97897.00
2023-04-16T21:40:27.545Z,97900.00
2023-04-16T21:42:55.270Z,97901.00
2023-04-16T21:45:22.903Z,97898.00
2023-04-16T21:47:50.173Z,97896.00
2023-04-16T21:50:17.331Z,97901.00
2023-04-16T21:52:46.800Z,97905.00
2023-04-16T21:55:16.861Z,97900.00
2023-04-16T21:57:43.943Z,97898.00
2023-04-16T22:00:14.573Z,97898.00
2023-04-16T22:02:43.122Z,97892.00
2023-04-16T22:05:11.453Z,97895.00
2023-04-16T22:07:39.038Z,97898.00
2023-04-16T22:10:08.800Z,97898.00
2023-04-16T22:12:39.915Z,97901.00
2023-04-16T22:15:09.224Z,97897.00
2023-04-16T22:17:36.707Z,97902.00
2023-04-16T22:20:09.468Z,97905.00
2023-04-16T22:22:36.664Z,97892.00
2023-04-16T22:25:04.165Z,97892.00
2023-04-16T22:27:31.461Z,97884.00
2023-04-16T22:29:58.560Z,97881.00
2023-04-16T22:32:25.774Z,97891.00
2023-04-16T22:34:53.155Z,97888.00
2023-04-16T22:37:20.470Z,97878.00
2023-04-16T22:39:47.552Z,97880.00
2023-04-16T22:42:14.672Z,97878.00
2023-04-16T22:44:41.857Z,97878.00
2023-04-16T22:47:09.010Z,97884.00
2023-04-16T22:49:36.339Z,97885.00
2023-04-16T22:52:03.515Z,97882.00
2023-04-16T22:54:31.492Z,97883.00
2023-04-16T22:56:59.092Z,97889.00
2023-04-16T22:59:26.467Z,97881.00
2023-04-16T23:01:53.718Z,97885.00
2023-04-16T23:04:21.064Z,97884.00
2023-04-16T23:06:48.618Z,97877.00
2023-04-16T23:09:15.860Z,97877.00
2023-04-16T23:11:43.087Z,97872.00
2023-04-16T23:14:10.227Z,97877.00
2023-04-16T23:16:37.330Z,97877.00
2023-04-16T23:19:04.516Z,97879.00
2023-04-16T23:21:32.543Z,97886.00
2023-04-16T23:23:59.723Z,97880.00
2023-04-16T23:26:26.949Z,97878.00
2023-04-16T23:28:54.074Z,97881.00
2023-04-16T23:31:21.197Z,97887.00
2023-04-16T23:33:48.324Z,97879.00
2023-04-16T23:36:15.391Z,97883.00
2023-04-16T23:38:42.623Z,97876.00
2023-04-16T23:41:09.921Z,97875.00
2023-04-16T23:43:40.082Z,97878.00
2023-04-16T23:46:07.952Z,97870.00
2023-04-16T23:48:35.149Z,97879.00
2023-04-16T23:51:02.431Z,97885.00
2023-04-16T23:53:29.539Z,97891.00
2023-04-16T23:55:56.645Z,97886.00
2023-04-16T23:58:23.823Z,97884.00
